Time;durP1;ratioP1;P1;durP2;ratioP2;P2;SDS_P1;SDS_P2;PMS_P1;PMS_P2;Temp;Humidity;BMP_temperature;BMP_pressure;BME280_temperature;BME280_humidity;BME280_pressure;Samples;Min_cycle;Max_cycle;Signal;HPM_P1;HPM_P2
2022/09/19 00:01:20;;;;;;;3.03;0.80;;;;;;;19.34;48.42;101748.28;5032221;28;20055;-68
2022/09/19 00:03:51;;;;;;;4.25;1.10;;;;;;;19.26;48.55;101730.34;5032101;28;20069;-67
2022/09/19 00:06:17;;;;;;;4.57;0.93;;;;;;;19.30;48.39;101745.03;5031621;28;20465;-68
2022/09/19 00:08:45;;;;;;;3.95;1.15;;;;;;;19.24;48.48;101732.25;5031553;28;20033;-68
2022/09/19 00:11:12;;;;;;;2.72;0.82;;;;;;;19.25;48.27;101735.72;5030071;28;20398;-68
2022/09/19 00:13:44;;;;;;;4.13;0.90;;;;;;;19.20;48.40;101731.63;5031563;28;20025;-68
2022/09/19 00:16:10;;;;;;;3.33;0.93;;;;;;;19.25;48.33;101736.59;5031236;28;20029;-68
2022/09/19 00:18:35;;;;;;;3.45;0.85;;;;;;;19.18;48.31;101722.13;5031660;28;20099;-67
2022/09/19 00:21:01;;;;;;;2.67;0.95;;;;;;;19.24;48.21;101744.63;5031372;28;20029;-68
2022/09/19 00:26:13;;;;;;;5.57;1.08;;;;;;;19.14;48.17;101725.97;5031665;28;20270;-68
2022/09/19 00:28:38;;;;;;;4.18;0.90;;;;;;;19.19;48.46;101734.41;5031818;28;20050;-68
2022/09/19 00:31:05;;;;;;;2.67;0.80;;;;;;;19.18;48.34;101740.63;5031449;28;20388;-70
2022/09/19 00:33:32;;;;;;;3.17;0.98;;;;;;;19.19;48.39;101742.31;5031099;28;20060;-68
2022/09/19 00:36:00;;;;;;;4.65;1.10;;;;;;;19.18;48.39;101743.25;5031958;28;20037;-70
2022/09/19 00:38:27;;;;;;;2.65;0.70;;;;;;;19.13;48.12;101743.59;5021547;28;20408;-68
2022/09/19 00:40:55;;;;;;;4.07;1.40;;;;;;;19.13;48.16;101748.03;5031261;28;20032;-68
2022/09/19 00:43:22;;;;;;;5.00;1.73;;;;;;;19.14;48.27;101750.56;5030533;28;20036;-66
2022/09/19 00:45:48;;;;;;;5.75;1.20;;;;;;;19.12;48.12;101751.63;5031431;28;20025;-68
2022/09/19 00:48:15;;;;;;;2.92;0.93;;;;;;;19.07;48.29;101740.53;5030985;28;20032;-68
2022/09/19 00:50:44;;;;;;;3.53;0.90;;;;;;;19.10;48.21;101749.09;5031182;28;20033;-68
2022/09/19 00:53:16;;;;;;;4.78;0.90;;;;;;;19.08;48.17;101745.72;5031794;28;20043;-68
2022/09/19 00:55:42;;;;;;;3.72;1.00;;;;;;;19.09;48.14;101747.41;5031398;28;20044;-67
2022/09/19 00:58:15;;;;;;;2.33;0.75;;;;;;;19.07;48.20;101748.47;5031247;28;20026;-70
2022/09/19 01:00:41;;;;;;;3.80;0.88;;;;;;;19.00;48.30;101737.50;5031159;28;20037;-66
2022/09/19 01:03:09;;;;;;;2.05;0.68;;;;;;;19.01;48.01;101737.41;5030652;28;20392;-68
2022/09/19 01:05:49;;;;;;;4.85;1.25;;;;;;;19.07;48.08;101751.13;5030915;28;20036;-68
2022/09/19 01:08:43;;;;;;;3.65;1.13;;;;;;;19.05;48.27;101745.94;5030328;28;20052;-70
2022/09/19 01:11:22;;;;;;;3.03;0.90;;;;;;;18.98;47.89;101737.59;5030631;28;20033;-71
2022/09/19 01:14:17;;;;;;;2.45;0.90;;;;;;;18.98;48.05;101752.63;5030549;28;20343;-70
2022/09/19 01:16:50;;;;;;;3.83;0.85;;;;;;;18.96;48.07;101743.94;5031187;28;20065;-68
2022/09/19 01:19:51;;;;;;;2.53;0.80;;;;;;;19.01;48.02;101757.69;5031255;28;20496;-69
2022/09/19 01:22:31;;;;;;;3.47;0.90;;;;;;;19.00;47.69;101756.00;5030978;28;20371;-68
2022/09/19 01:25:45;;;;;;;3.85;0.85;;;;;;;18.98;47.73;101757.91;5030515;28;20037;-69
2022/09/19 01:28:25;;;;;;;3.63;1.00;;;;;;;18.89;48.08;101745.34;5032334;28;20715;-72
2022/09/19 01:33:44;;;;;;;3.70;0.80;;;;;;;18.92;47.81;101761.81;5034349;28;20120;-68
2022/09/19 01:36:14;;;;;;;5.75;1.10;;;;;;;18.95;47.77;101768.69;5033908;28;20025;-68
2022/09/19 01:38:43;;;;;;;4.20;1.17;;;;;;;18.89;47.75;101759.38;5034380;28;20033;-68
2022/09/19 01:41:10;;;;;;;2.88;0.80;;;;;;;18.90;47.70;101774.28;5033997;28;20053;-69
2022/09/19 01:43:35;;;;;;;3.35;0.88;;;;;;;18.85;47.79;101761.41;5034315;28;20025;-68
2022/09/19 01:46:07;;;;;;;4.03;0.98;;;;;;;18.92;47.84;101771.53;5034383;28;20779;-68
2022/09/19 01:48:53;;;;;;;3.72;0.98;;;;;;;18.92;47.91;101766.25;5034639;28;20469;-68
2022/09/19 01:51:42;;;;;;;3.92;1.00;;;;;;;18.85;47.81;101768.50;5034000;28;20140;-71
2022/09/19 01:54:56;;;;;;;4.35;0.93;;;;;;;18.91;47.78;101772.47;5034250;28;20443;-70
2022/09/19 01:57:36;;;;;;;6.10;1.58;;;;;;;18.92;47.79;101776.81;5034692;28;20057;-71
2022/09/19 02:00:09;;;;;;;3.25;0.80;;;;;;;18.75;47.66;101751.53;5034528;28;20598;-69
2022/09/19 02:02:56;;;;;;;2.60;0.80;;;;;;;18.85;47.67;101766.69;5033938;28;20041;-68
2022/09/19 02:05:53;;;;;;;4.38;1.00;;;;;;;18.90;47.61;101776.06;5033734;28;20025;-71
2022/09/19 02:08:28;;;;;;;3.80;1.02;;;;;;;18.88;47.64;101772.69;5033453;28;20252;-68
2022/09/19 02:11:00;;;;;;;3.17;0.95;;;;;;;18.82;47.55;101772.16;5034268;28;20080;-68
2022/09/19 02:13:29;;;;;;;3.30;1.00;;;;;;;18.85;47.55;101774.59;5033759;28;20036;-68
2022/09/19 02:16:00;;;;;;;3.72;0.90;;;;;;;18.79;47.62;101767.06;5034235;28;20032;-68
2022/09/19 02:18:30;;;;;;;3.13;0.90;;;;;;;18.79;47.50;101764.44;5033922;28;20040;-66
2022/09/19 02:21:02;;;;;;;5.30;1.15;;;;;;;18.86;47.75;101778.09;5034198;28;20033;-69
2022/09/19 02:23:31;;;;;;;3.53;0.93;;;;;;;18.83;47.50;101775.63;5033403;28;20047;-70
2022/09/19 02:25:58;;;;;;;3.67;0.90;;;;;;;18.77;47.36;101769.00;5033412;28;20026;-68
2022/09/19 02:28:38;;;;;;;3.60;1.00;;;;;;;18.77;47.57;101783.97;5033073;28;20388;-68
2022/09/19 02:31:05;;;;;;;4.45;1.00;;;;;;;18.82;47.69;101781.88;5033710;28;20033;-67
2022/09/19 02:33:32;;;;;;;5.22;0.85;;;;;;;18.75;47.65;101780.59;5032938;28;20079;-65
2022/09/19 02:36:20;;;;;;;3.08;0.90;;;;;;;18.80;47.58;101787.25;5032944;28;20048;-69
2022/09/19 02:38:55;;;;;;;4.15;1.00;;;;;;;18.80;47.41;101789.91;5030424;28;20048;-68
2022/09/19 02:41:45;;;;;;;4.38;1.05;;;;;;;18.80;47.39;101789.03;5033160;28;20037;-68
2022/09/19 02:44:19;;;;;;;3.00;0.90;;;;;;;18.75;47.51;101780.59;5033536;28;20094;-70
2022/09/19 02:46:44;;;;;;;3.60;0.93;;;;;;;18.78;47.70;101796.22;5033494;28;20025;-70
2022/09/19 02:49:38;;;;;;;3.20;0.70;;;;;;;18.77;47.54;101799.81;5033593;28;20025;-68
2022/09/19 02:52:12;;;;;;;4.33;0.90;;;;;;;18.71;47.55;101793.16;5033050;28;20060;-71
2022/09/19 02:54:42;;;;;;;2.92;0.80;;;;;;;18.71;47.44;101798.44;5033548;28;20032;-71
2022/09/19 02:57:12;;;;;;;3.85;1.25;;;;;;;18.69;47.26;101787.13;5033330;28;20361;-69
2022/09/19 02:59:42;;;;;;;4.32;1.10;;;;;;;18.73;47.36;101795.72;5033481;28;20045;-69
2022/09/19 03:02:17;;;;;;;2.75;0.70;;;;;;;18.76;47.45;101803.41;5031746;28;20079;-68
2022/09/19 03:04:52;;;;;;;4.47;0.90;;;;;;;18.67;47.34;101789.91;5032598;28;20115;-67
2022/09/19 03:07:25;;;;;;;3.63;0.80;;;;;;;18.72;47.31;101800.13;5032913;28;20026;-68
2022/09/19 03:09:58;;;;;;;4.13;0.90;;;;;;;18.71;47.20;101794.94;5032479;28;20047;-68
2022/09/19 03:12:33;;;;;;;3.13;0.90;;;;;;;18.70;47.27;101795.91;5032926;28;20033;-70
2022/09/19 03:14:58;;;;;;;4.25;0.90;;;;;;;18.71;47.32;101801.09;5032206;28;20033;-68
2022/09/19 03:17:31;;;;;;;3.88;1.05;;;;;;;18.70;47.38;101795.91;5032067;28;20039;-69
2022/09/19 03:19:57;;;;;;;3.15;1.00;;;;;;;18.63;47.29;101791.06;5033341;28;20032;-69
2022/09/19 03:22:25;;;;;;;2.72;0.80;;;;;;;18.70;47.24;101802.03;5032542;28;20022;-68
2022/09/19 03:24:51;;;;;;;5.20;1.08;;;;;;;18.65;47.24;101790.94;5032484;28;20064;-67
2022/09/19 03:27:16;;;;;;;4.18;1.30;;;;;;;18.68;47.19;101801.31;5031943;28;20477;-69
2022/09/19 03:29:41;;;;;;;4.47;1.10;;;;;;;18.68;47.34;101804.78;5032312;28;20029;-70
2022/09/19 03:32:08;;;;;;;2.80;0.70;;;;;;;18.59;47.20;101786.91;5032531;28;20345;-69
2022/09/19 03:34:33;;;;;;;3.28;0.82;;;;;;;18.66;47.14;101790.84;5031784;28;20044;-67
2022/09/19 03:36:59;;;;;;;5.47;1.10;;;;;;;18.73;47.06;101793.91;5032974;28;20071;-69
2022/09/19 03:39:25;;;;;;;2.88;0.82;;;;;;;18.83;46.88;101804.66;5031612;28;20033;-68
2022/09/19 03:41:51;;;;;;;4.20;1.40;;;;;;;18.81;46.78;101801.31;5032644;28;20033;-69
2022/09/19 03:44:19;;;;;;;4.18;0.90;;;;;;;18.82;46.81;101801.19;5032448;28;20120;-71
2022/09/19 03:46:46;;;;;;;4.60;0.90;;;;;;;18.85;46.83;101801.03;5031725;28;20029;-69
2022/09/19 03:49:11;;;;;;;3.08;0.82;;;;;;;18.78;46.77;101790.94;5031768;28;20248;-68
2022/09/19 03:51:37;;;;;;;3.75;0.90;;;;;;;18.76;46.90;101788.41;5031809;28;20107;-68
2022/09/19 03:54:02;;;;;;;2.67;0.90;;;;;;;18.83;46.95;101810.81;5031707;28;20110;-68
2022/09/19 03:56:28;;;;;;;2.90;0.80;;;;;;;18.80;47.01;101807.53;5032002;28;20456;-67
2022/09/19 03:58:53;;;;;;;2.83;0.77;;;;;;;18.79;46.71;101803.22;5031645;28;20033;-69
2022/09/19 04:01:18;;;;;;;3.70;1.00;;;;;;;18.79;46.98;101803.22;5031823;28;20030;-68
2022/09/19 04:03:44;;;;;;;5.65;0.93;;;;;;;18.75;46.99;101801.72;5031917;28;20874;-67
2022/09/19 04:06:10;;;;;;;4.05;0.85;;;;;;;18.73;47.12;101799.19;5031755;28;20457;-67
2022/09/19 04:08:36;;;;;;;5.35;0.85;;;;;;;18.70;47.19;101795.91;5031709;28;20421;-68
2022/09/19 04:11:01;;;;;;;2.22;0.90;;;;;;;18.69;46.83;101800.34;5031591;28;20139;-68
2022/09/19 04:13:28;;;;;;;3.88;1.00;;;;;;;18.71;47.15;101808.16;5031545;28;20033;-69
2022/09/19 04:15:54;;;;;;;3.40;0.93;;;;;;;18.72;47.17;101812.50;5031144;28;20033;-67
2022/09/19 04:18:20;;;;;;;3.80;0.95;;;;;;;18.74;46.97;101813.22;5030036;28;20362;-69
2022/09/19 04:20:46;;;;;;;3.95;1.05;;;;;;;18.62;47.11;101805.19;5030982;28;20098;-70
2022/09/19 04:23:16;;;;;;;3.97;1.10;;;;;;;18.72;47.09;101817.78;5031998;28;20158;-68
2022/09/19 04:25:42;;;;;;;2.75;0.88;;;;;;;18.68;47.15;101814.50;5031106;28;20091;-68
2022/09/19 04:28:09;;;;;;;3.92;1.10;;;;;;;18.66;47.10;101821.69;5031208;28;20404;-70
2022/09/19 04:30:35;;;;;;;3.08;0.80;;;;;;;18.71;47.13;101830.13;5030611;28;20061;-69
2022/09/19 04:33:02;;;;;;;2.08;0.75;;;;;;;18.65;47.08;101817.34;5031228;28;20471;-69
2022/09/19 04:35:29;;;;;;;3.40;0.88;;;;;;;18.68;47.09;101831.19;5031119;28;20030;-70
2022/09/19 04:37:54;;;;;;;3.45;1.00;;;;;;;18.65;47.14;101822.63;5031387;28;20033;-69
2022/09/19 04:40:21;;;;;;;3.47;0.98;;;;;;;18.66;47.15;101824.34;5031458;28;20086;-69
2022/09/19 04:42:47;;;;;;;3.58;1.10;;;;;;;18.63;47.18;101820.09;5031183;28;20029;-69
2022/09/19 04:45:13;;;;;;;2.60;0.93;;;;;;;18.66;47.23;101841.00;5031323;28;20360;-69
2022/09/19 04:47:38;;;;;;;3.53;1.02;;;;;;;18.63;47.30;101833.28;5031127;28;20399;-68
2022/09/19 04:50:08;;;;;;;3.47;0.80;;;;;;;18.65;47.27;101839.31;5031078;28;20037;-69
2022/09/19 04:52:34;;;;;;;5.47;1.15;;;;;;;18.66;47.08;101846.28;5031193;28;20363;-69
2022/09/19 04:55:00;;;;;;;1.85;0.73;;;;;;;18.67;47.14;101845.34;5030807;28;20025;-68
2022/09/19 04:57:26;;;;;;;2.95;0.82;;;;;;;18.65;47.35;101849.88;5031134;28;20114;-72
2022/09/19 04:59:54;;;;;;;4.20;1.00;;;;;;;18.61;47.25;101836.97;5031491;28;20040;-70
2022/09/19 05:02:20;;;;;;;2.95;0.80;;;;;;;18.59;47.41;101845.00;5031046;28;20025;-68
2022/09/19 05:04:46;;;;;;;3.92;1.05;;;;;;;18.63;47.36;101851.78;5034820;28;20031;-68
2022/09/19 05:07:13;;;;;;;4.35;1.10;;;;;;;18.58;47.43;101840.69;5035510;28;20465;-68
2022/09/19 05:09:38;;;;;;;3.65;0.82;;;;;;;18.49;47.25;101823.66;5034753;28;20028;-68
2022/09/19 05:12:04;;;;;;;3.00;0.80;;;;;;;18.62;47.37;101843.97;5034886;28;20088;-67
2022/09/19 05:14:30;;;;;;;4.20;1.20;;;;;;;18.62;47.34;101847.44;5034495;28;20293;-69
2022/09/19 05:16:56;;;;;;;4.18;1.20;;;;;;;18.68;47.22;101844.38;5034305;28;20055;-70
2022/09/19 05:19:24;;;;;;;5.28;1.27;;;;;;;18.80;47.04;101857.69;5034691;28;20026;-68
2022/09/19 05:21:50;;;;;;;3.63;1.00;;;;;;;18.72;46.91;101847.66;5034488;28;20037;-68
2022/09/19 05:24:16;;;;;;;2.83;0.93;;;;;;;18.83;46.77;101861.00;5034512;28;20377;-69
2022/09/19 05:26:41;;;;;;;3.25;0.90;;;;;;;18.84;47.12;101861.88;5034673;28;20049;-68
2022/09/19 05:29:07;;;;;;;4.07;1.10;;;;;;;18.72;47.15;101855.56;5034568;28;20033;-69
2022/09/19 05:31:35;;;;;;;5.18;1.00;;;;;;;18.81;47.10;101876.09;5034683;28;20087;-67
2022/09/19 05:34:00;;;;;;;3.47;0.90;;;;;;;18.80;47.05;101868.25;5034339;28;20044;-67
2022/09/19 05:36:27;;;;;;;3.13;0.93;;;;;;;18.75;47.16;101860.66;5034348;28;20385;-68
2022/09/19 05:38:52;;;;;;;3.70;0.90;;;;;;;18.74;47.21;101864.25;5034522;28;20032;-70
2022/09/19 05:41:18;;;;;;;5.25;1.23;;;;;;;18.77;47.23;101871.09;5034543;28;20041;-70
2022/09/19 05:43:43;;;;;;;5.13;1.10;;;;;;;18.73;47.12;101870.47;5033653;28;20037;-69
2022/09/19 05:46:08;;;;;;;3.85;1.00;;;;;;;18.70;47.14;101867.22;5034397;28;20043;-68
2022/09/19 05:48:37;;;;;;;2.83;0.80;;;;;;;18.67;47.33;101863.84;5034262;28;20044;-69
2022/09/19 05:51:02;;;;;;;4.57;1.20;;;;;;;18.72;47.31;101870.59;5034187;28;20270;-67
2022/09/19 05:56:12;;;;;;;2.88;0.95;;;;;;;18.70;47.52;101877.78;5034176;28;20032;-68
2022/09/19 05:58:37;;;;;;;3.95;0.82;;;;;;;18.62;47.31;101865.91;5034352;28;20033;-68
2022/09/19 06:01:08;;;;;;;4.15;1.10;;;;;;;18.72;47.44;101881.97;5033295;28;20471;-69
2022/09/19 06:03:34;;;;;;;2.97;0.80;;;;;;;18.65;47.55;101873.63;5033499;28;20030;-67
2022/09/19 06:06:00;;;;;;;3.38;1.02;;;;;;;18.72;47.64;101878.50;5033554;28;20032;-70
2022/09/19 06:08:25;;;;;;;3.42;0.80;;;;;;;18.77;47.31;101868.47;5033338;28;20041;-69
2022/09/19 06:10:51;;;;;;;3.28;1.00;;;;;;;18.93;47.02;101892.94;5033626;28;20033;-68
2022/09/19 06:13:18;;;;;;;3.13;0.90;;;;;;;18.96;47.08;101883.94;5033605;28;20047;-69
2022/09/19 06:15:44;;;;;;;4.47;0.93;;;;;;;18.98;46.76;101874.13;5032410;28;20025;-66
2022/09/19 06:18:10;;;;;;;4.05;1.23;;;;;;;19.08;46.62;101904.25;5034003;28;20045;-68
2022/09/19 06:20:36;;;;;;;4.40;1.00;;;;;;;19.11;47.19;101896.09;5034011;28;20033;-69
2022/09/19 06:23:03;;;;;;;3.90;1.00;;;;;;;19.09;46.99;101892.75;5031984;28;20145;-67
2022/09/19 06:25:30;;;;;;;3.47;0.90;;;;;;;19.17;47.03;101895.69;5031937;28;20117;-71
2022/09/19 06:27:56;;;;;;;2.92;0.85;;;;;;;19.12;47.00;101895.16;5033241;28;20052;-70
2022/09/19 06:30:23;;;;;;;4.15;1.20;;;;;;;19.17;47.11;101898.34;5033559;28;20033;-68
2022/09/19 06:32:49;;;;;;;3.22;1.10;;;;;;;19.22;47.06;101903.31;5034215;28;20082;-68
2022/09/19 06:35:14;;;;;;;3.15;1.00;;;;;;;19.28;47.13;101907.31;5033089;28;20037;-67
2022/09/19 06:37:39;;;;;;;2.95;0.80;;;;;;;19.24;47.35;101895.28;5033139;28;20049;-69
2022/09/19 06:40:05;;;;;;;4.23;0.90;;;;;;;19.34;47.38;101914.81;5032632;28;20063;-69
2022/09/19 06:42:30;;;;;;;3.40;1.00;;;;;;;19.37;47.27;101910.16;5031949;28;20617;-70
2022/09/19 06:44:56;;;;;;;5.57;1.20;;;;;;;19.38;47.67;101905.72;5032881;28;20073;-68
2022/09/19 06:47:21;;;;;;;5.65;1.05;;;;;;;19.44;47.67;101912.34;5033201;28;20611;-68
2022/09/19 06:49:46;;;;;;;3.75;1.00;;;;;;;19.42;47.75;101911.63;5033328;28;20488;-68
2022/09/19 06:52:12;;;;;;;2.47;0.70;;;;;;;19.46;47.38;101919.25;5032887;28;20044;-68
2022/09/19 06:54:37;;;;;;;3.53;0.90;;;;;;;19.53;47.69;101932.88;5032207;28;21173;-67
2022/09/19 06:57:03;;;;;;;3.35;0.90;;;;;;;19.53;47.72;101928.41;5032452;28;20092;-69
2022/09/19 06:59:28;;;;;;;4.72;1.15;;;;;;;19.49;47.95;101926.13;5032865;28;20486;-68
2022/09/19 07:01:53;;;;;;;2.47;0.90;;;;;;;19.55;47.74;101944.19;5033094;28;20063;-68
2022/09/19 07:04:20;;;;;;;5.03;1.03;;;;;;;19.57;47.73;101937.00;5033059;28;20034;-69
2022/09/19 07:06:46;;;;;;;4.53;1.10;;;;;;;19.55;47.97;101926.53;5033367;28;20329;-69
2022/09/19 07:09:11;;;;;;;5.00;0.98;;;;;;;19.61;48.25;101941.09;5032819;28;20116;-67
2022/09/19 07:11:37;;;;;;;4.03;1.00;;;;;;;19.60;48.27;101935.94;5032459;28;20437;-68
2022/09/19 07:14:03;;;;;;;4.38;1.05;;;;;;;19.62;48.10;101945.44;5033002;28;20071;-66
2022/09/19 07:16:30;;;;;;;2.10;0.82;;;;;;;19.60;48.33;101946.50;5032338;28;20041;-67
2022/09/19 07:18:55;;;;;;;4.32;1.15;;;;;;;19.68;48.35;101960.88;5032641;28;20052;-69
2022/09/19 07:21:20;;;;;;;4.28;1.30;;;;;;;19.69;48.20;101949.38;5031688;28;20393;-68
2022/09/19 07:23:47;;;;;;;4.15;1.00;;;;;;;19.67;48.41;101951.25;5032822;28;20032;-69
2022/09/19 07:26:12;;;;;;;3.85;0.90;;;;;;;19.69;48.53;101954.66;5023601;28;21036;-67
2022/09/19 07:28:38;;;;;;;3.63;0.95;;;;;;;19.72;48.48;101965.00;5033100;28;20131;-68
2022/09/19 07:31:03;;;;;;;7.27;1.13;;;;;;;19.75;48.86;101962.13;5031356;28;20094;-74
2022/09/19 07:33:28;;;;;;;4.13;1.10;;;;;;;19.57;48.84;101960.81;5030787;28;20277;-77
2022/09/19 07:35:55;;;;;;;4.40;1.17;;;;;;;19.56;49.34;101975.81;5029540;28;20032;-79
2022/09/19 07:38:22;;;;;;;3.72;0.98;;;;;;;19.58;49.45;101984.50;5030656;28;20089;-79
2022/09/19 07:40:48;;;;;;;7.32;1.40;;;;;;;19.63;49.58;101980.66;5030299;28;20837;-74
2022/09/19 07:43:16;;;;;;;4.10;1.00;;;;;;;19.60;49.47;101970.31;5031431;28;20586;-76
2022/09/19 07:45:44;;;;;;;7.95;1.17;;;;;;;19.72;49.13;101980.03;5030820;28;20025;-77
2022/09/19 07:48:09;;;;;;;6.25;1.45;;;;;;;19.73;49.37;101974.63;5031401;28;20037;-72
2022/09/19 07:50:35;;;;;;;4.43;1.00;;;;;;;19.83;49.31;101988.06;5031039;28;20380;-75
2022/09/19 07:53:12;;;;;;;4.90;1.33;;;;;;;19.85;49.20;101980.91;5030736;28;20029;-73
2022/09/19 07:55:38;;;;;;;4.43;1.40;;;;;;;19.90;49.04;101983.19;5030326;28;20040;-74
2022/09/19 07:58:05;;;;;;;4.70;1.10;;;;;;;20.00;48.64;101992.19;5031018;28;20417;-72
2022/09/19 08:00:37;;;;;;;3.38;0.93;;;;;;;20.02;48.69;101987.63;5032072;28;20866;-72
2022/09/19 08:03:05;;;;;;;5.32;1.17;;;;;;;20.09;48.39;101988.88;5030725;28;20017;-75
2022/09/19 08:05:35;;;;;;;3.00;1.10;;;;;;;20.03;48.20;101984.03;5030702;28;20033;-74
2022/09/19 08:08:01;;;;;;;6.05;1.10;;;;;;;20.08;48.34;101989.00;5031041;28;20047;-73
2022/09/19 08:10:26;;;;;;;4.63;1.25;;;;;;;20.11;48.49;101994.06;5031154;28;20037;-71
2022/09/19 08:12:52;;;;;;;3.55;1.02;;;;;;;20.07;48.71;101984.66;5029419;28;20029;-72
2022/09/19 08:15:19;;;;;;;5.57;1.02;;;;;;;20.03;48.36;101996.44;5030648;28;20029;-78
2022/09/19 08:17:57;;;;;;;4.32;1.20;;;;;;;20.10;48.85;102001.16;5030473;28;20025;-75
2022/09/19 08:20:24;;;;;;;4.90;1.00;;;;;;;20.17;48.93;102006.00;5031171;28;20029;-76
2022/09/19 08:22:49;;;;;;;5.00;1.20;;;;;;;20.16;48.54;102013.09;5030153;28;20440;-76
2022/09/19 08:25:15;;;;;;;4.10;1.13;;;;;;;20.16;48.38;101999.03;5029686;28;20072;-77
2022/09/19 08:27:44;;;;;;;5.72;1.40;;;;;;;20.19;48.33;102004.94;5030282;28;20313;-76
2022/09/19 08:30:10;;;;;;;4.55;0.90;;;;;;;20.26;48.73;102014.13;5028738;28;20079;-74
2022/09/19 08:32:35;;;;;;;4.65;1.10;;;;;;;20.22;48.74;102010.03;5030050;28;20831;-74
2022/09/19 08:35:01;;;;;;;4.82;0.82;;;;;;;20.26;48.48;102021.22;5030049;28;20029;-73
2022/09/19 08:37:26;;;;;;;5.43;1.03;;;;;;;20.21;48.62;102010.13;5029516;28;20035;-76
2022/09/19 08:42:51;;;;;;;4.05;1.00;;;;;;;20.25;48.61;102019.53;5030805;28;20508;-76
2022/09/19 08:45:19;;;;;;;3.30;0.80;;;;;;;20.28;48.85;102025.47;5030664;28;20029;-77
2022/09/19 08:47:46;;;;;;;7.15;1.25;;;;;;;20.23;48.71;102027.56;5030918;28;20040;-74
2022/09/19 08:50:20;;;;;;;3.55;0.93;;;;;;;20.22;48.71;102019.75;5029907;28;20029;-76
2022/09/19 08:52:50;;;;;;;6.40;1.05;;;;;;;20.21;48.73;102018.06;5030902;28;20033;-74
2022/09/19 08:55:20;;;;;;;4.00;1.25;;;;;;;20.23;48.77;102022.28;5030857;28;20080;-76
2022/09/19 08:57:54;;;;;;;6.32;1.20;;;;;;;20.24;48.61;102020.50;5030703;28;20112;-75
2022/09/19 09:00:22;;;;;;;5.22;1.25;;;;;;;20.21;48.63;102010.13;5030556;28;20033;-73
2022/09/19 09:03:26;;;;;;;4.93;1.20;;;;;;;20.33;48.34;102024.28;5030133;28;20037;-72
2022/09/19 09:06:25;;;;;;;3.63;0.85;;;;;;;20.30;48.60;102018.25;5025592;28;20822;-75
2022/09/19 09:09:05;;;;;;;5.05;1.17;;;;;;;20.24;48.89;102016.03;5030923;28;20141;-72
2022/09/19 09:11:38;;;;;;;4.00;1.08;;;;;;;20.21;48.73;102013.63;5028994;28;20043;-76
2022/09/19 09:14:22;;;;;;;3.28;0.90;;;;;;;20.20;49.08;102025.19;5029833;28;20025;-77
2022/09/19 09:16:59;;;;;;;5.97;1.10;;;;;;;20.11;48.99;102015.25;5030173;28;20025;-75
2022/09/19 09:19:39;;;;;;;7.53;1.15;;;;;;;20.19;49.15;102023.47;5029879;28;20057;-77
2022/09/19 09:22:31;;;;;;;5.10;1.10;;;;;;;20.22;49.36;102022.38;5029395;28;21004;-76
2022/09/19 09:25:13;;;;;;;3.20;0.98;;;;;;;20.23;49.30;102017.00;5028917;28;20057;-74
2022/09/19 09:27:58;;;;;;;5.90;1.25;;;;;;;20.24;49.47;102023.16;5029355;28;20049;-71
2022/09/19 09:30:23;;;;;;;4.47;1.05;;;;;;;20.20;49.05;102005.78;5029710;28;20037;-72
2022/09/19 09:32:56;;;;;;;5.68;1.17;;;;;;;20.22;49.18;102007.38;5029020;28;20048;-70
2022/09/19 09:35:30;;;;;;;7.68;1.08;;;;;;;20.24;49.11;101999.31;5030213;28;20064;-75
2022/09/19 09:38:02;;;;;;;6.60;1.33;;;;;;;20.22;49.33;102001.22;5029927;28;20171;-79
2022/09/19 09:43:44;;;;;;;4.38;1.08;;;;;;;20.30;49.17;102015.59;5030398;28;20091;-73
2022/09/19 09:46:14;;;;;;;5.18;0.80;;;;;;;20.20;49.17;102005.78;5030273;28;20048;-75
2022/09/19 09:48:40;;;;;;;5.47;1.00;;;;;;;20.23;49.53;102014.34;5030883;28;20041;-75
2022/09/19 09:51:39;;;;;;;6.82;1.25;;;;;;;20.31;49.33;102027.03;5033396;28;20474;-76
2022/09/19 09:57:29;;;;;;;5.80;1.30;;;;;;;20.21;49.38;102016.25;5033958;28;20040;-73
2022/09/19 10:06:28;;;;;;;4.45;1.05;;;;;;;20.36;49.00;102024.06;5033639;28;20047;-74
2022/09/19 10:09:01;;;;;;;4.68;0.88;;;;;;;20.40;48.91;102023.72;5033684;28;20021;-72
2022/09/19 10:11:42;;;;;;;4.55;0.85;;;;;;;20.43;48.71;102025.31;5033797;28;20524;-74
2022/09/19 10:14:18;;;;;;;4.13;0.80;;;;;;;20.41;48.93;102019.25;5033304;28;20040;-71
2022/09/19 10:16:46;;;;;;;5.15;1.05;;;;;;;20.39;48.96;102015.88;5033091;28;20568;-76
2022/09/19 10:19:14;;;;;;;3.80;0.80;;;;;;;20.47;48.95;102030.28;5033095;28;20048;-76
2022/09/19 10:21:40;;;;;;;4.38;1.02;;;;;;;20.41;48.77;102019.25;5032249;28;20037;-73
2022/09/19 10:24:45;;;;;;;3.42;1.00;;;;;;;20.46;48.87;102025.94;5033204;28;20035;-72
2022/09/19 10:27:22;;;;;;;4.28;1.08;;;;;;;20.44;49.04;102027.84;5027812;28;20588;-68
2022/09/19 10:29:56;;;;;;;4.72;1.25;;;;;;;20.42;49.05;102026.25;5031531;28;20029;-68
2022/09/19 10:32:24;;;;;;;;;;;;;;;20.45;48.58;102029.53;5032776;28;20358;-71
2022/09/19 10:34:50;;;;;;;3.55;0.88;;;;;;;20.44;48.45;102016.41;5033043;28;19955;-69
2022/09/19 10:37:21;;;;;;;3.88;0.70;;;;;;;20.50;48.29;102026.53;5032641;28;20025;-71
2022/09/19 10:39:48;;;;;;;2.53;0.73;;;;;;;20.49;48.45;102016.94;5033838;28;20033;-68
2022/09/19 10:42:42;;;;;;;6.40;1.15;;;;;;;20.56;48.41;102036.69;5033854;28;20025;-68
2022/09/19 10:45:25;;;;;;;6.28;1.13;;;;;;;20.52;48.59;102042.31;5033173;28;20053;-69
2022/09/19 10:48:01;;;;;;;4.03;1.20;;;;;;;20.51;48.21;102048.59;5033430;28;20045;-66
2022/09/19 10:50:28;;;;;;;5.50;1.17;;;;;;;20.44;48.78;102029.63;5047579;28;20491;-72
2022/09/19 10:53:05;;;;;;;6.20;1.30;;;;;;;20.46;49.03;102027.75;5032359;28;20030;-73
2022/09/19 10:55:34;;;;;;;5.70;1.35;;;;;;;20.45;49.28;102033.97;5032504;28;20025;-72
2022/09/19 10:58:04;;;;;;;5.63;1.30;;;;;;;20.36;49.42;102021.41;5031557;28;20459;-72
2022/09/19 11:00:48;;;;;;;6.78;1.05;;;;;;;20.46;49.54;102030.38;5022381;28;20025;-76
2022/09/19 11:03:25;;;;;;;4.43;1.10;;;;;;;20.47;49.64;102032.94;5032519;28;20021;-74
2022/09/19 11:06:10;;;;;;;3.80;1.23;;;;;;;20.52;49.88;102024.66;5032112;28;20037;-73
2022/09/19 11:08:49;;;;;;;5.50;0.80;;;;;;;20.53;50.01;102021.03;5032595;28;20414;-73
2022/09/19 11:11:36;;;;;;;5.22;1.05;;;;;;;20.46;49.85;102017.97;5031617;28;20037;-75
2022/09/19 11:14:10;;;;;;;3.35;0.80;;;;;;;20.55;49.94;102031.50;5031820;28;20039;-75
2022/09/19 11:16:38;;;;;;;;;;;;;;;20.53;49.81;102036.91;5048182;28;20082;-74
2022/09/19 11:19:32;;;;;;;7.53;1.02;;;;;;;20.55;49.84;102026.22;5031901;28;19923;-74
2022/09/19 11:22:16;;;;;;;4.55;1.15;;;;;;;20.55;50.06;102028.84;5032199;28;20072;-74
2022/09/19 11:25:06;;;;;;;6.65;0.95;;;;;;;20.55;49.79;102027.03;5031245;28;20107;-77
2022/09/19 11:27:45;;;;;;;6.10;1.20;;;;;;;20.55;49.85;102023.56;5032249;28;20140;-73
2022/09/19 11:30:19;;;;;;;3.25;0.70;;;;;;;20.56;50.08;102019.97;5031892;28;20082;-73
2022/09/19 11:33:02;;;;;;;6.55;0.85;;;;;;;20.56;50.19;102020.81;5038151;28;20363;-72
2022/09/19 11:35:44;;;;;;;3.90;0.88;;;;;;;20.50;49.77;102010.66;5031834;28;20029;-75
2022/09/19 11:38:16;;;;;;;3.40;0.85;;;;;;;20.57;50.33;102016.34;5031645;28;20469;-74
2022/09/19 11:41:22;;;;;;;5.90;1.08;;;;;;;20.51;50.02;102020.31;5031763;28;20061;-78
2022/09/19 11:44:03;;;;;;;4.20;0.88;;;;;;;20.60;49.93;102030.22;5032044;28;20033;-75
2022/09/19 11:46:42;;;;;;;5.30;1.30;;;;;;;20.58;49.78;102023.34;5032299;28;20175;-74
2022/09/19 11:49:35;;;;;;;5.43;1.63;;;;;;;20.61;49.95;102029.25;5031429;28;20033;-69
2022/09/19 11:52:15;;;;;;;5.80;0.95;;;;;;;20.60;49.80;102022.28;5031245;28;20089;-74
2022/09/19 11:54:44;;;;;;;4.53;0.85;;;;;;;20.59;49.50;102023.22;5031396;28;20067;-71
2022/09/19 11:57:26;;;;;;;4.88;0.88;;;;;;;20.51;48.98;102009.72;5031821;28;20460;-73
2022/09/19 12:00:12;;;;;;;4.78;1.17;;;;;;;20.52;48.79;102007.91;5031682;28;20029;-70
2022/09/19 12:02:50;;;;;;;6.43;0.70;;;;;;;20.52;49.04;102019.34;5031085;28;20076;-72
2022/09/19 12:05:17;;;;;;;3.97;0.93;;;;;;;20.50;49.29;102021.25;5030990;28;20389;-72
2022/09/19 12:08:00;;;;;;;7.22;0.95;;;;;;;20.42;49.82;102005.09;5031424;28;20068;-73
2022/09/19 12:11:05;;;;;;;5.28;1.00;;;;;;;20.52;49.44;102015.84;5030776;28;20033;-73